createdAt,value
2023-01-27T00:01:16.944Z,102308.16
2023-01-27T00:03:43.912Z,102301.91
2023-01-27T00:06:13.275Z,102314.38
2023-01-27T00:08:40.248Z,102307.25
2023-01-27T00:11:39.428Z,102309.88
2023-01-27T00:14:06.362Z,102303.88
2023-01-27T00:16:33.156Z,102302.78
2023-01-27T00:18:59.925Z,102303.88
2023-01-27T00:21:45.187Z,102306.56
2023-01-27T00:24:33.560Z,102309.69
2023-01-27T00:27:00.419Z,102327.38
2023-01-27T00:29:27.671Z,102325.72
2023-01-27T00:32:12.991Z,102320.53
2023-01-27T00:34:41.579Z,102311.97
2023-01-27T00:37:08.588Z,102319.16
2023-01-27T00:39:35.585Z,102318.19
2023-01-27T00:42:02.443Z,102317.25
2023-01-27T00:44:29.267Z,102307.66
2023-01-27T00:46:56.050Z,102308.44
2023-01-27T00:49:22.994Z,102307.66
2023-01-27T00:51:50.006Z,102299.41
2023-01-27T00:54:17.679Z,102300.38
2023-01-27T00:56:45.173Z,102296.94
2023-01-27T00:59:12.004Z,102295.03
2023-01-27T01:01:39.812Z,102290.59
2023-01-27T01:04:06.900Z,102293.47
2023-01-27T01:06:33.799Z,102292.59
2023-01-27T01:09:00.590Z,102297.00
2023-01-27T01:11:27.693Z,102296.25
2023-01-27T01:13:56.416Z,102297.09
2023-01-27T01:16:25.695Z,102287.50
2023-01-27T01:18:52.667Z,102294.56
2023-01-27T01:21:19.643Z,102295.78
2023-01-27T01:23:46.798Z,102291.03
2023-01-27T01:26:16.334Z,102288.78
2023-01-27T01:28:45.802Z,102291.63
2023-01-27T01:31:18.062Z,102284.41
2023-01-27T01:33:45.775Z,102285.19
2023-01-27T01:36:20.360Z,102289.66
2023-01-27T01:38:48.027Z,102286.19
2023-01-27T01:41:21.526Z,102292.34
2023-01-27T01:43:49.994Z,102293.22
2023-01-27T01:46:18.122Z,102277.91
2023-01-27T01:48:56.605Z,102270.78
2023-01-27T01:51:41.694Z,102273.91
2023-01-27T01:54:22.385Z,102279.28
2023-01-27T01:57:23.086Z,102273.31
2023-01-27T02:00:03.796Z,102271.22
2023-01-27T02:02:31.716Z,102282.03
2023-01-27T02:05:06.376Z,102279.44
2023-01-27T02:07:59.308Z,102264.84
2023-01-27T02:10:26.220Z,102269.94
2023-01-27T02:12:53.071Z,102272.72
2023-01-27T02:15:21.643Z,102271.69
2023-01-27T02:17:49.165Z,102272.59
2023-01-27T02:20:22.398Z,102267.25
2023-01-27T02:23:27.204Z,102271.06
2023-01-27T02:26:21.300Z,102265.47
2023-01-27T02:28:59.087Z,102256.63
2023-01-27T02:31:26.211Z,102269.34
2023-01-27T02:33:59.297Z,102269.50
2023-01-27T02:36:28.292Z,102264.84
2023-01-27T02:38:57.014Z,102253.34
2023-01-27T02:41:37.097Z,102250.66
2023-01-27T02:44:04.368Z,102246.59
2023-01-27T02:46:31.533Z,102253.69
2023-01-27T02:48:59.046Z,102258.53
2023-01-27T02:51:26.036Z,102249.72
2023-01-27T02:53:52.980Z,102249.72
2023-01-27T02:56:19.840Z,102246.16
2023-01-27T02:58:46.733Z,102248.31
2023-01-27T03:01:13.991Z,102248.31
2023-01-27T03:03:58.713Z,102252.97
2023-01-27T03:06:26.068Z,102253.09
2023-01-27T03:08:52.870Z,102247.88
2023-01-27T03:11:39.710Z,102248.03
2023-01-27T03:14:08.924Z,102243.47
2023-01-27T03:16:54.885Z,102248.03
2023-01-27T03:19:22.126Z,102243.66
2023-01-27T03:21:51.391Z,102245.72
2023-01-27T03:24:19.138Z,102246.06
2023-01-27T03:26:46.645Z,102244.16
2023-01-27T03:29:31.973Z,102238.94
2023-01-27T03:31:59.049Z,102246.91
2023-01-27T03:34:26.262Z,102246.75
2023-01-27T03:37:11.797Z,102246.75
2023-01-27T03:39:57.602Z,102244.16
2023-01-27T03:42:42.910Z,102240.69
2023-01-27T03:45:29.129Z,102238.19
2023-01-27T03:47:55.893Z,102244.31
2023-01-27T03:50:37.971Z,102235.50
2023-01-27T03:53:06.072Z,102241.19
2023-01-27T03:55:35.340Z,102241.03
2023-01-27T03:58:19.819Z,102244.81
2023-01-27T04:00:57.180Z,102245.84
2023-01-27T04:03:45.462Z,102245.78
2023-01-27T04:06:34.670Z,102246.72
2023-01-27T04:09:02.120Z,102248.78
2023-01-27T04:11:48.817Z,102240.84
2023-01-27T04:14:17.093Z,102235.28
2023-01-27T04:16:44.274Z,102235.13
2023-01-27T04:19:12.184Z,102234.50
2023-01-27T04:21:39.876Z,102236.38
2023-01-27T04:24:17.581Z,102236.72
2023-01-27T04:26:45.951Z,102230.97
2023-01-27T04:29:14.206Z,102231.94
2023-01-27T04:31:41.519Z,102227.56
2023-01-27T04:34:10.402Z,102224.03
2023-01-27T04:36:37.212Z,102224.31
2023-01-27T04:39:04.084Z,102228.63
2023-01-27T04:41:30.941Z,102221.56
2023-01-27T04:44:01.662Z,102224.44
2023-01-27T04:46:28.425Z,102226.00
2023-01-27T04:48:55.236Z,102235.94
2023-01-27T04:51:22.389Z,102231.22
2023-01-27T04:53:49.385Z,102230.25
2023-01-27T04:56:29.182Z,102231.16
2023-01-27T04:59:00.160Z,102215.88
2023-01-27T05:01:27.711Z,102223.72
2023-01-27T05:03:55.237Z,102221.94
2023-01-27T05:06:22.923Z,102217.50
2023-01-27T05:08:50.065Z,102214.69
2023-01-27T05:11:17.486Z,102214.81
2023-01-27T05:13:45.327Z,102223.03
2023-01-27T05:16:21.889Z,102218.94
2023-01-27T05:18:50.848Z,102222.56
2023-01-27T05:21:22.444Z,102219.09
2023-01-27T05:23:50.004Z,102220.84
2023-01-27T05:26:27.042Z,102212.81
2023-01-27T05:28:57.243Z,102208.25
2023-01-27T05:31:28.023Z,102214.53
2023-01-27T05:33:56.807Z,102219.81
2023-01-27T05:36:25.847Z,102221.44
2023-01-27T05:38:54.917Z,102223.97
2023-01-27T05:41:22.926Z,102212.16
2023-01-27T05:43:55.841Z,102215.94
2023-01-27T05:46:29.770Z,102217.06
2023-01-27T05:49:00.838Z,102216.34
2023-01-27T05:51:32.185Z,102207.75
2023-01-27T05:53:59.515Z,102216.19
2023-01-27T05:56:26.972Z,102219.03
2023-01-27T05:58:55.523Z,102215.66
2023-01-27T06:01:31.968Z,102214.88
2023-01-27T06:03:59.202Z,102211.25
2023-01-27T06:06:28.779Z,102217.56
2023-01-27T06:08:55.593Z,102209.53
2023-01-27T06:11:24.489Z,102215.66
2023-01-27T06:13:52.875Z,102214.56
2023-01-27T06:16:22.524Z,102215.47
2023-01-27T06:18:50.020Z,102206.38
2023-01-27T06:21:18.036Z,102221.31
2023-01-27T06:23:44.964Z,102222.97
2023-01-27T06:26:16.503Z,102221.00
2023-01-27T06:28:44.544Z,102216.34
2023-01-27T06:31:18.689Z,102218.94
2023-01-27T06:33:45.792Z,102213.41
2023-01-27T06:36:17.115Z,102208.94
2023-01-27T06:38:45.065Z,102212.56
2023-01-27T06:41:12.222Z,102216.41
2023-01-27T06:43:39.196Z,102212.81
2023-01-27T06:46:06.508Z,102213.22
2023-01-27T06:48:33.770Z,102217.53
2023-01-27T06:51:00.803Z,102223.66
2023-01-27T06:53:27.663Z,102222.03
2023-01-27T06:56:01.636Z,102219.09
2023-01-27T06:58:29.768Z,102224.31
2023-01-27T07:00:57.288Z,102221.69
2023-01-27T07:03:25.023Z,102223.53
2023-01-27T07:05:53.469Z,102226.19
2023-01-27T07:08:20.616Z,102227.06
2023-01-27T07:10:47.373Z,102230.44
2023-01-27T07:13:15.386Z,102232.25
2023-01-27T07:15:42.592Z,102227.75
2023-01-27T07:18:12.326Z,102234.81
2023-01-27T07:20:39.607Z,102233.81
2023-01-27T07:23:06.495Z,102227.56
2023-01-27T07:25:35.579Z,102232.06
2023-01-27T07:28:03.419Z,102240.81
2023-01-27T07:30:31.099Z,102231.06
2023-01-27T07:33:10.199Z,102242.63
2023-01-27T07:35:38.887Z,102239.00
2023-01-27T07:38:07.054Z,102237.97
2023-01-27T07:40:34.309Z,102241.44
2023-01-27T07:43:02.275Z,102246.88
2023-01-27T07:45:30.577Z,102244.91
2023-01-27T07:48:03.184Z,102247.50
2023-01-27T07:50:30.662Z,102250.41
2023-01-27T07:53:02.872Z,102249.53
2023-01-27T07:55:30.889Z,102259.91
2023-01-27T07:57:58.547Z,102260.25
2023-01-27T08:00:25.653Z,102271.81
2023-01-27T08:02:54.471Z,102264.41
2023-01-27T08:05:23.494Z,102271.66
2023-01-27T08:07:52.397Z,102269.00
2023-01-27T08:10:19.561Z,102275.28
2023-01-27T08:12:47.185Z,102277.94
2023-01-27T08:15:15.525Z,102275.28
2023-01-27T08:17:43.881Z,102284.72
2023-01-27T08:20:12.509Z,102284.00
2023-01-27T08:22:39.568Z,102280.34
2023-01-27T08:25:07.181Z,102282.13
2023-01-27T08:27:33.961Z,102289.06
2023-01-27T08:30:00.725Z,102300.56
2023-01-27T08:32:27.657Z,102297.63
2023-01-27T08:34:55.903Z,102298.59
2023-01-27T08:37:22.691Z,102299.38
2023-01-27T08:39:49.446Z,102308.97
2023-01-27T08:42:18.036Z,102297.16
2023-01-27T08:44:45.053Z,102306.81
2023-01-27T08:47:11.843Z,102307.53
2023-01-27T08:49:38.705Z,102317.38
2023-01-27T08:52:05.597Z,102319.09
2023-01-27T08:54:32.403Z,102318.72
2023-01-27T08:56:59.182Z,102321.38
2023-01-27T08:59:26.127Z,102320.44
2023-01-27T09:01:52.978Z,102328.31
2023-01-27T09:04:22.854Z,102323.81
2023-01-27T09:06:50.521Z,102329.16
2023-01-27T09:09:17.487Z,102329.72
2023-01-27T09:11:45.734Z,102331.78
2023-01-27T09:14:13.930Z,102335.22
2023-01-27T09:16:40.809Z,102336.78
2023-01-27T09:19:07.857Z,102342.16
2023-01-27T09:21:34.639Z,102345.59
2023-01-27T09:24:01.450Z,102341.03
2023-01-27T09:26:28.310Z,102339.06
2023-01-27T09:28:55.077Z,102343.28
2023-01-27T09:31:22.021Z,102341.94
2023-01-27T09:33:49.261Z,102326.81
2023-01-27T09:36:21.528Z,102345.13
2023-01-27T09:38:55.852Z,102331.66
2023-01-27T09:41:37.694Z,102345.84
2023-01-27T09:44:12.205Z,102342.84
2023-01-27T09:47:46.492Z,102339.97
2023-01-27T09:50:45.596Z,102339.13
2023-01-27T09:53:51.794Z,102339.47
2023-01-27T09:56:54.015Z,102349.69
2023-01-27T09:59:57.367Z,102340.34
2023-01-27T10:02:52.542Z,102335.00
2023-01-27T10:05:47.478Z,102333.44
2023-01-27T10:08:32.949Z,102337.31
2023-01-27T10:11:26.218Z,102344.84
2023-01-27T10:14:07.587Z,102346.03
2023-01-27T10:16:41.699Z,102336.19
2023-01-27T10:19:55.151Z,102341.44
2023-01-27T10:22:45.350Z,102350.19
2023-01-27T10:25:32.284Z,102346.22
2023-01-27T10:28:11.932Z,102342.38
2023-01-27T10:30:58.112Z,102344.81
2023-01-27T10:33:48.490Z,102341.94
2023-01-27T10:36:51.012Z,102337.09
2023-01-27T10:40:01.317Z,102334.13
2023-01-27T10:43:02.228Z,102345.47
2023-01-27T10:45:45.821Z,102335.41
2023-01-27T10:48:33.711Z,102336.97
2023-01-27T10:51:24.496Z,102335.03
2023-01-27T10:54:13.952Z,102341.09
2023-01-27T10:56:57.520Z,102337.09
2023-01-27T10:59:42.877Z,102335.25
2023-01-27T11:02:09.638Z,102328.56
2023-01-27T11:04:43.243Z,102335.78
2023-01-27T11:07:17.964Z,102323.88
2023-01-27T11:09:55.992Z,102315.44
2023-01-27T11:12:35.679Z,102321.66
2023-01-27T11:15:16.658Z,102328.69
2023-01-27T11:18:17.927Z,102319.50
2023-01-27T11:20:54.581Z,102311.44
2023-01-27T11:23:27.959Z,102316.72
2023-01-27T11:26:28.108Z,102312.03
2023-01-27T11:29:20.431Z,102306.75
2023-01-27T11:32:16.030Z,102310.09
2023-01-27T11:34:51.826Z,102308.34
2023-01-27T11:37:24.375Z,102297.44
2023-01-27T11:39:51.205Z,102297.03
2023-01-27T11:42:18.621Z,102306.94
2023-01-27T11:44:45.926Z,102294.19
2023-01-27T11:47:35.069Z,102296.66
2023-01-27T11:50:04.655Z,102298.41
2023-01-27T11:52:32.150Z,102301.84
2023-01-27T11:55:20.171Z,102305.31
2023-01-27T11:57:58.124Z,102295.81
2023-01-27T12:00:38.975Z,102290.16
2023-01-27T12:04:04.819Z,102290.78
2023-01-27T12:06:49.229Z,102286.56
2023-01-27T12:09:41.193Z,102288.41
2023-01-27T12:12:13.956Z,102289.00
2023-01-27T12:14:56.347Z,102283.81
2023-01-27T12:17:42.241Z,102281.69
2023-01-27T12:20:43.519Z,102275.06
2023-01-27T12:23:30.145Z,102263.34
2023-01-27T12:26:02.492Z,102268.44
2023-01-27T12:28:37.019Z,102275.53
2023-01-27T12:31:31.203Z,102269.03
2023-01-27T12:34:07.001Z,102268.34
2023-01-27T12:36:41.463Z,102264.59
2023-01-27T12:39:30.975Z,102261.13
2023-01-27T12:41:58.500Z,102266.78
2023-01-27T12:44:29.433Z,102258.63
2023-01-27T12:47:25.126Z,102255.34
2023-01-27T12:49:52.071Z,102250.47
2023-01-27T12:52:21.882Z,102246.69
2023-01-27T12:54:51.366Z,102257.34
2023-01-27T12:57:21.790Z,102259.94
2023-01-27T12:59:56.665Z,102254.44
2023-01-27T13:02:25.513Z,102251.97
2023-01-27T13:05:01.256Z,102244.00
2023-01-27T13:07:45.515Z,102244.78
2023-01-27T13:10:27.996Z,102244.00
2023-01-27T13:12:58.723Z,102240.38
2023-01-27T13:15:31.315Z,102243.06
2023-01-27T13:18:00.313Z,102235.28
2023-01-27T13:20:32.171Z,102237.97
2023-01-27T13:23:16.187Z,102235.59
2023-01-27T13:25:50.452Z,102232.50
2023-01-27T13:28:42.779Z,102227.41
2023-01-27T13:31:43.274Z,102220.97
2023-01-27T13:34:36.411Z,102216.03
2023-01-27T13:37:40.183Z,102216.94
2023-01-27T13:40:30.029Z,102216.72
2023-01-27T13:43:33.758Z,102210.72
2023-01-27T13:46:32.087Z,102207.94
2023-01-27T13:49:05.459Z,102204.94
2023-01-27T13:51:33.636Z,102214.66
2023-01-27T13:54:04.121Z,102208.28
2023-01-27T13:57:29.353Z,102206.47
2023-01-27T14:00:18.274Z,102200.44
2023-01-27T14:03:00.386Z,102196.09
2023-01-27T14:05:39.102Z,102199.53
2023-01-27T14:08:45.542Z,102198.41
2023-01-27T14:12:14.366Z,102197.84
2023-01-27T14:15:46.874Z,102198.03
2023-01-27T14:18:30.830Z,102203.22
2023-01-27T14:21:41.428Z,102202.38
2023-01-27T14:24:38.012Z,102199.34
2023-01-27T14:27:29.079Z,102193.31
2023-01-27T14:30:24.740Z,102197.00
2023-01-27T14:33:12.866Z,102193.72
2023-01-27T14:35:50.129Z,102193.31
2023-01-27T14:38:42.981Z,102186.41
2023-01-27T14:41:34.558Z,102188.78
2023-01-27T14:44:44.454Z,102189.44
2023-01-27T14:47:53.945Z,102182.34
2023-01-27T14:50:27.724Z,102188.41
2023-01-27T14:53:45.696Z,102187.09
2023-01-27T14:56:56.880Z,102187.94
2023-01-27T15:00:10.928Z,102187.09
2023-01-27T15:02:53.131Z,102191.81
2023-01-27T15:05:29.716Z,102189.09
2023-01-27T15:08:20.911Z,102198.13
2023-01-27T15:11:06.175Z,102193.81
2023-01-27T15:14:17.506Z,102203.63
2023-01-27T15:17:32.194Z,102201.91
2023-01-27T15:20:29.526Z,102209.13
2023-01-27T15:23:45.872Z,102198.63
2023-01-27T15:26:15.288Z,102200.38
2023-01-27T15:28:43.574Z,102196.94
2023-01-27T15:31:19.593Z,102197.78
2023-01-27T15:34:04.809Z,102204.63
2023-01-27T15:36:38.636Z,102199.81
2023-01-27T15:39:11.559Z,102203.34
2023-01-27T15:42:03.363Z,102194.75
2023-01-27T15:45:01.340Z,102196.47
2023-01-27T15:47:32.818Z,102194.84
2023-01-27T15:50:18.206Z,102195.25
2023-01-27T15:52:48.055Z,102194.28
2023-01-27T15:55:30.755Z,102214.25
2023-01-27T15:58:35.776Z,102207.38
2023-01-27T16:01:08.470Z,102203.59
2023-01-27T16:03:44.110Z,102205.53
2023-01-27T16:06:23.775Z,102210.47
2023-01-27T16:09:03.023Z,102204.19
2023-01-27T16:11:29.718Z,102206.03
2023-01-27T16:14:11.764Z,102203.84
2023-01-27T16:16:51.624Z,102209.13
2023-01-27T16:19:29.431Z,102209.22
2023-01-27T16:22:01.553Z,102205.84
2023-01-27T16:24:48.312Z,102205.28
2023-01-27T16:27:34.067Z,102207.03
2023-01-27T16:30:06.579Z,102209.03
2023-01-27T16:32:41.191Z,102213.56
2023-01-27T16:35:19.253Z,102204.81
2023-01-27T16:38:21.738Z,102217.69
2023-01-27T16:40:55.930Z,102214.91
2023-01-27T16:43:40.754Z,102211.38
2023-01-27T16:46:45.833Z,102220.28
2023-01-27T16:49:21.584Z,102215.09
2023-01-27T16:51:58.967Z,102218.00
2023-01-27T16:54:33.804Z,102217.00
2023-01-27T16:57:04.169Z,102218.94
2023-01-27T16:59:37.760Z,102225.97
2023-01-27T17:02:21.589Z,102230.66
2023-01-27T17:04:53.107Z,102229.97
2023-01-27T17:07:20.015Z,102226.41
2023-01-27T17:09:53.871Z,102233.69
2023-01-27T17:12:36.610Z,102234.78
2023-01-27T17:15:37.199Z,102244.66
2023-01-27T17:18:11.082Z,102250.13
2023-01-27T17:20:41.981Z,102253.56
2023-01-27T17:23:29.344Z,102256.66
2023-01-27T17:25:56.533Z,102252.97
2023-01-27T17:28:27.373Z,102261.13
2023-01-27T17:31:07.448Z,102255.00
2023-01-27T17:33:36.792Z,102259.34
2023-01-27T17:36:10.913Z,102257.69
2023-01-27T17:38:50.063Z,102261.44
2023-01-27T17:41:37.979Z,102257.88
2023-01-27T17:44:14.249Z,102258.66
2023-01-27T17:46:41.898Z,102262.19
2023-01-27T17:49:16.139Z,102259.59
2023-01-27T17:51:51.447Z,102257.13
2023-01-27T17:54:38.785Z,102257.00
2023-01-27T17:57:32.757Z,102262.50
2023-01-27T18:00:04.705Z,102265.06
2023-01-27T18:02:36.223Z,102270.56
2023-01-27T18:05:16.438Z,102262.59
2023-01-27T18:07:43.425Z,102265.34
2023-01-27T18:10:37.566Z,102271.97
2023-01-27T18:13:19.489Z,102266.59
2023-01-27T18:16:19.590Z,102272.06
2023-01-27T18:18:47.686Z,102271.88
2023-01-27T18:21:16.843Z,102269.28
2023-01-27T18:23:56.951Z,102263.06
2023-01-27T18:26:38.293Z,102273.78
2023-01-27T18:29:22.923Z,102270.34
2023-01-27T18:31:59.781Z,102271.50
2023-01-27T18:34:31.294Z,102275.63
2023-01-27T18:37:03.652Z,102280.31
2023-01-27T18:39:39.988Z,102270.44
2023-01-27T18:42:28.512Z,102279.72
2023-01-27T18:44:56.889Z,102274.06
2023-01-27T18:47:33.592Z,102277.81
2023-01-27T18:50:25.155Z,102287.78
2023-01-27T18:52:53.474Z,102286.78
2023-01-27T18:55:23.642Z,102284.13
2023-01-27T18:57:59.137Z,102277.97
2023-01-27T19:00:37.762Z,102282.56
2023-01-27T19:03:12.774Z,102280.88
2023-01-27T19:05:40.475Z,102283.91
2023-01-27T19:08:09.290Z,102281.88
2023-01-27T19:10:36.812Z,102283.81
2023-01-27T19:13:04.481Z,102285.63
2023-01-27T19:15:37.432Z,102280.34
2023-01-27T19:18:26.146Z,102275.84
2023-01-27T19:20:53.489Z,102284.69
2023-01-27T19:23:21.522Z,102280.44
2023-01-27T19:25:54.059Z,102290.31
2023-01-27T19:28:38.528Z,102295.59
2023-01-27T19:31:07.592Z,102297.44
2023-01-27T19:33:37.308Z,102295.59
2023-01-27T19:36:26.702Z,102290.41
2023-01-27T19:39:02.237Z,102299.16
2023-01-27T19:41:29.200Z,102299.06
2023-01-27T19:43:56.475Z,102298.19
2023-01-27T19:46:23.686Z,102300.13
2023-01-27T19:48:50.854Z,102302.69
2023-01-27T19:51:19.010Z,102298.28
2023-01-27T19:53:46.444Z,102304.59
2023-01-27T19:56:17.386Z,102294.75
2023-01-27T19:58:51.956Z,102296.47
2023-01-27T20:01:21.541Z,102296.53
2023-01-27T20:03:49.700Z,102295.78
2023-01-27T20:06:29.596Z,102290.59
2023-01-27T20:08:59.914Z,102290.59
2023-01-27T20:11:30.121Z,102287.16
2023-01-27T20:13:58.007Z,102283.59
2023-01-27T20:16:26.293Z,102292.41
2023-01-27T20:18:54.335Z,102297.88
2023-01-27T20:21:21.304Z,102298.06
2023-01-27T20:23:48.650Z,102297.09
2023-01-27T20:26:16.851Z,102290.00
2023-01-27T20:28:44.724Z,102289.16
2023-01-27T20:31:22.728Z,102291.91
2023-01-27T20:33:50.368Z,102287.41
2023-01-27T20:36:22.008Z,102301.03
2023-01-27T20:38:49.065Z,102283.19
2023-01-27T20:41:20.312Z,102286.81
2023-01-27T20:43:47.190Z,102293.06
2023-01-27T20:46:17.540Z,102298.44
2023-01-27T20:48:44.989Z,102299.44
2023-01-27T20:51:15.136Z,102300.50
2023-01-27T20:53:47.190Z,102298.59
2023-01-27T20:56:23.287Z,102299.66
2023-01-27T20:58:51.332Z,102302.34
2023-01-27T21:01:23.800Z,102313.16
2023-01-27T21:03:51.074Z,102299.75
2023-01-27T21:06:20.265Z,102305.09
2023-01-27T21:08:50.431Z,102309.50
2023-01-27T21:11:20.218Z,102313.16
2023-01-27T21:13:48.348Z,102301.56
2023-01-27T21:16:15.603Z,102298.00
2023-01-27T21:18:44.193Z,102289.94
2023-01-27T21:21:23.255Z,102298.09
2023-01-27T21:23:50.750Z,102298.97
2023-01-27T21:26:17.577Z,102292.63
2023-01-27T21:28:44.519Z,102290.84
2023-01-27T21:31:18.704Z,102283.72
2023-01-27T21:33:46.309Z,102288.22
2023-01-27T21:36:13.545Z,102284.78
2023-01-27T21:38:41.107Z,102284.88
2023-01-27T21:41:12.142Z,102281.31
2023-01-27T21:43:57.542Z,102283.03
2023-01-27T21:46:24.575Z,102273.34
2023-01-27T21:48:51.400Z,102271.53
2023-01-27T21:51:18.160Z,102264.53
2023-01-27T21:53:44.966Z,102261.06
2023-01-27T21:56:11.962Z,102252.91
2023-01-27T21:58:39.352Z,102256.75
2023-01-27T22:01:10.642Z,102260.19
2023-01-27T22:03:38.539Z,102267.47
2023-01-27T22:06:07.568Z,102258.66
2023-01-27T22:08:35.027Z,102271.28
2023-01-27T22:11:07.088Z,102260.56
2023-01-27T22:13:34.403Z,102260.56
2023-01-27T22:16:01.781Z,102252.50
2023-01-27T22:18:29.160Z,102265.06
2023-01-27T22:20:56.362Z,102259.69
2023-01-27T22:23:24.700Z,102260.72
2023-01-27T22:25:53.017Z,102265.22
2023-01-27T22:28:23.268Z,102265.22
2023-01-27T22:30:50.804Z,102259.78
2023-01-27T22:33:17.700Z,102259.00
2023-01-27T22:35:44.800Z,102249.22
2023-01-27T22:38:11.616Z,102248.44
2023-01-27T22:40:38.533Z,102254.78
2023-01-27T22:43:09.425Z,102251.13
2023-01-27T22:45:40.302Z,102259.47
2023-01-27T22:48:09.027Z,102254.00
2023-01-27T22:50:37.108Z,102251.22
2023-01-27T22:53:05.549Z,102254.88
2023-01-27T22:55:32.791Z,102247.75
2023-01-27T22:58:00.167Z,102244.31
2023-01-27T23:00:27.279Z,102245.97
2023-01-27T23:02:54.666Z,102247.88
2023-01-27T23:05:21.487Z,102254.00
2023-01-27T23:07:48.346Z,102247.88
2023-01-27T23:10:16.608Z,102233.41
2023-01-27T23:12:43.409Z,102231.88
2023-01-27T23:15:10.759Z,102243.63
2023-01-27T23:17:37.736Z,102245.66
2023-01-27T23:20:05.265Z,102242.06
2023-01-27T23:22:32.817Z,102248.41
2023-01-27T23:24:59.613Z,102241.31
2023-01-27T23:27:28.706Z,102243.22
2023-01-27T23:29:55.583Z,102244.06
2023-01-27T23:32:22.835Z,102245.03
2023-01-27T23:34:50.476Z,102241.56
2023-01-27T23:37:17.686Z,102239.84
2023-01-27T23:39:48.763Z,102241.81
2023-01-27T23:42:17.264Z,102248.06
2023-01-27T23:44:44.261Z,102237.59
2023-01-27T23:47:13.607Z,102243.94
2023-01-27T23:49:40.945Z,102245.72
2023-01-27T23:52:08.221Z,102248.47
2023-01-27T23:54:34.959Z,102236.91
2023-01-27T23:57:01.761Z,102249.38
2023-01-27T23:59:28.548Z,102245.91
